Home > Products > Valid Products > TAF

000
FTUS44 KAMA 220500
TAFAMA
TAF
KAMA 220520Z 2206/2306 17012KT P6SM BKN100
     FM221200 19012KT P6SM OVC040
     FM221700 20016KT P6SM VCSH OVC035=



000
FTUS44 KAMA 220500
TAFGUY
TAF
KGUY 220520Z 2206/2306 19008KT P6SM BKN100
     FM221000 21015KT P6SM SCT020 OVC080
     FM221700 20010KT P6SM VCSH OVC040=



000
FTUS44 KAMA 220500
TAFDHT
TAF
KDHT 220520Z 2206/2306 20008KT P6SM OVC100
     FM221000 20005KT P6SM OVC015
     FM221700 21012KT P6SM VCSH SCT020 OVC050=



000
FTUS44 KAMA 220500
TAFDHT
TAF
KDHT 220520Z 2206/2306 20008KT P6SM OVC100
     FM221000 20005KT P6SM OVC015
     FM221700 21012KT P6SM VCSH SCT020 OVC050=



000
FTUS44 KAMA 220500
TAFGUY
TAF
KGUY 220520Z 2206/2306 19008KT P6SM BKN100
     FM221000 21015KT P6SM SCT020 OVC080
     FM221700 20010KT P6SM VCSH OVC040=



000
FTUS44 KAMA 220500
TAFAMA
TAF
KAMA 220520Z 2206/2306 17012KT P6SM BKN100
     FM221200 19012KT P6SM OVC040
     FM221700 20016KT P6SM VCSH OVC035=



000
FTUS44 KAMA 220300 AAA
TAFDHT
TAF AMD
KDHT 220339Z 2204/2224 20008KT P6SM BKN100
     FM220600 20005KT P6SM BKN020
     FM221500 21013KT P6SM SCT020 BKN050=



000
FTUS44 KAMA 212300
TAFAMA
TAF
KAMA 212320Z 2200/2224 17015KT P6SM BKN100
     FM221200 19012KT P6SM BKN050
     FM221800 20016KT P6SM VCSH BKN050=



000
FTUS44 KAMA 212300
TAFGUY
TAF
KGUY 212320Z 2200/2224 19016KT P6SM SCT100
     FM220100 19008KT P6SM BKN100
     FM221200 21015KT P6SM SCT020 BKN080
     FM222000 20010KT P6SM VCSH BKN050=



000
FTUS44 KAMA 212300
TAFDHT
TAF
KDHT 212320Z 2200/2224 18014KT P6SM SCT100
     FM220100 20008KT P6SM VCSH BKN100
     FM220600 20005KT P6SM BKN020
     FM221500 21013KT P6SM SCT020 BKN050=



000
FTUS44 KAMA 212300
TAFAMA
TAF
KAMA 212320Z 2200/2224 17015KT P6SM BKN100
     FM221200 19012KT P6SM BKN050
     FM221800 20016KT P6SM VCSH BKN050=



000
FTUS44 KAMA 212300
TAFGUY
TAF
KGUY 212320Z 2200/2224 19016KT P6SM SCT100
     FM220100 19008KT P6SM BKN100
     FM221200 21015KT P6SM SCT020 BKN080
     FM222000 20010KT P6SM VCSH BKN050=



000
FTUS44 KAMA 212300
TAFDHT
TAF
KDHT 212320Z 2200/2224 18014KT P6SM SCT100
     FM220100 20008KT P6SM VCSH BKN100
     FM220600 20005KT P6SM BKN020
     FM221500 21013KT P6SM SCT020 BKN050=



000
FTUS44 KAMA 212100 AAA
TAFAMA
TAF AMD
KAMA 212133Z 2122/2218 17015KT P6SM BKN100
     FM221200 19012KT P6SM BKN050=



000
FTUS44 KAMA 212100 AAA
TAFAMA
TAF AMD
KAMA 212133Z 2122/2218 17015KT P6SM BKN100
     FM221200 19012KT P6SM BKN050=



000
FTUS44 KAMA 211700
TAFDHT
TAF
KDHT 211720Z 2118/2218 20014G23KT P6SM SCT100
     FM220100 20008KT P6SM BKN100
     FM221400 21013KT P6SM BKN080=



000
FTUS44 KAMA 211700
TAFAMA
TAF
KAMA 211720Z 2118/2218 18012KT P6SM BKN100
     FM221200 19012KT P6SM BKN050=



000
FTUS44 KAMA 211700
TAFGUY
TAF
KGUY 211720Z 2118/2218 19016G24KT P6SM SCT100
     FM220100 19008KT P6SM BKN100
     FM221400 21015KT P6SM BKN080=



000
FTUS44 KAMA 211400 AAA
TAFAMA
TAF AMD
KAMA 211406Z 2114/2212 23008KT P6SM BKN050
     FM211700 19013KT P6SM SCT050 BKN250
     FM220000 17010KT P6SM BKN050=



000
FTUS44 KAMA 211400 AAA
TAFDHT
TAF AMD
KDHT 211404Z 2114/2212 22008KT P6SM SCT050
     FM211600 20016KT P6SM SCT050 SCT250
     FM220300 18010KT P6SM SCT050 BKN250=



000
FTUS44 KAMA 211100
TAFAMA
TAF
KAMA 211135Z 2112/2212 VRB04KT P6SM SCT120
     FM211700 19013KT P6SM SCT050 BKN250
     FM220000 17010KT P6SM BKN050=



000
FTUS44 KAMA 211100
TAFGUY
TAF
KGUY 211135Z 2112/2212 VRB05KT P6SM SCT120
      TEMPO 2112/2114 3SM BR SCT005
     FM211600 19015KT P6SM SCT050 SCT250=



000
FTUS44 KAMA 211100
TAFAMA
TAF
KAMA 211135Z 2112/2212 VRB04KT P6SM SCT120
     FM211700 19013KT P6SM SCT050 BKN250
     FM220000 17010KT P6SM BKN050=



000
FTUS44 KAMA 211100
TAFDHT
TAF
KDHT 211135Z 2112/2212 VRB04KT 5SM BR FEW120
     FM211500 20016KT P6SM SCT050 SCT250
     FM220300 18010KT P6SM SCT050 BKN250=



000
FTUS44 KAMA 211100
TAFGUY
TAF
KGUY 211135Z 2112/2212 VRB05KT P6SM SCT120
      TEMPO 2112/2114 3SM BR SCT005
     FM211600 19015KT P6SM SCT050 SCT250=



000
FTUS44 KAMA 211100
TAFDHT
TAF
KDHT 211135Z 2112/2212 VRB04KT 5SM BR FEW120
     FM211500 20016KT P6SM SCT050 SCT250
     FM220300 18010KT P6SM SCT050 BKN250=



000
FTUS44 KAMA 210500
TAFDHT
TAF
KDHT 210520Z 2106/2206 VRB03KT P6SM SKC
     FM210900 VRB04KT 5SM BR SCT010
     FM211500 21015KT P6SM FEW050=



000
FTUS44 KAMA 210500
TAFAMA
TAF
KAMA 210520Z 2106/2206 VRB03KT P6SM SCT100
     FM211700 19013KT P6SM SCT050=



000
FTUS44 KAMA 210500
TAFGUY
TAF
KGUY 210520Z 2106/2206 VRB03KT P6SM SKC
     FM210900 VRB04KT 3SM BR SCT006
     FM211500 19015KT P6SM FEW050=



000
FTUS44 KAMA 202300
TAFDHT
TAF
KDHT 202320Z 2100/2124 09008KT P6SM SKC
     FM210100 VRB03KT P6SM SKC
     FM210900 VRB04KT 5SM BR SCT010
     FM211500 21015KT P6SM FEW050=



000
FTUS44 KAMA 202300
TAFGUY
TAF
KGUY 202320Z 2100/2124 09008KT P6SM SKC
     FM210100 VRB03KT P6SM SKC
     FM210900 VRB04KT 5SM BR SCT010
     FM211500 19015KT P6SM FEW050=



000
FTUS44 KAMA 202300
TAFAMA
TAF
KAMA 202320Z 2100/2124 04008KT P6SM FEW050
     FM210100 VRB03KT P6SM SKC
     FM211700 19013KT P6SM SCT050=



000
FTUS44 KAMA 201700
TAFDHT
TAF
KDHT 201720Z 2018/2118 09008KT P6SM FEW250
     FM210100 VRB03KT P6SM SCT100
     FM211500 20010KT P6SM SCT070=



000
FTUS44 KAMA 201700
TAFGUY
TAF
KGUY 201720Z 2018/2118 09008KT P6SM FEW250
     FM210100 VRB03KT P6SM FEW100
     FM211500 19008KT P6SM FEW070=



000
FTUS44 KAMA 201700
TAFAMA
TAF
KAMA 201720Z 2018/2118 04008KT P6SM SCT250
     FM210100 VRB03KT P6SM SCT100
     FM211500 22008KT P6SM BKN070=



000
FTUS44 KAMA 201100
TAFGUY
TAF
KGUY 201137Z 2012/2112 36008KT P6SM SCT150
     FM202200 11008KT P6SM SCT080=



000
FTUS44 KAMA 201100
TAFAMA
TAF
KAMA 201137Z 2012/2112 33008KT P6SM SCT150
     FM202000 09008KT P6SM SCT080=



000
FTUS44 KAMA 201100
TAFDHT
TAF
KDHT 201137Z 2012/2112 36008KT P6SM SCT150
     FM202200 11008KT P6SM SCT080=



000
FTUS44 KAMA 200500
TAFGUY
TAF
KGUY 200520Z 2006/2106 21009KT P6SM BKN250
     FM201100 35007KT P6SM SCT250=



000
FTUS44 KAMA 200500
TAFDHT
TAF
KDHT 200520Z 2006/2106 22008KT P6SM BKN250
     FM201200 34008KT P6SM SCT250=



000
FTUS44 KAMA 200500
TAFAMA
TAF
KAMA 200520Z 2006/2106 20010KT P6SM BKN250
     FM201400 31008KT P6SM SCT250=



000
FTUS44 KAMA 192300
TAFAMA
TAF
KAMA 192320Z 2000/2024 20011KT P6SM BKN250
     FM201400 28009KT P6SM SCT250=



000
FTUS44 KAMA 192300
TAFGUY
TAF
KGUY 192320Z 2000/2024 24011KT P6SM BKN250
     FM201300 34008KT P6SM SCT250=



000
FTUS44 KAMA 192300
TAFDHT
TAF
KDHT 192320Z 2000/2024 24011KT P6SM BKN250
     FM201500 34008KT P6SM SCT250=



000
FTUS44 KAMA 192300
TAFGUY
TAF
KGUY 192320Z 2000/2024 24011KT P6SM BKN250
     FM201300 34008KT P6SM SCT250=



000
FTUS44 KAMA 192300
TAFAMA
TAF
KAMA 192320Z 2000/2024 20011KT P6SM BKN250
     FM201400 28009KT P6SM SCT250=



000
FTUS44 KAMA 192300
TAFDHT
TAF
KDHT 192320Z 2000/2024 24011KT P6SM BKN250
     FM201500 34008KT P6SM SCT250=



000
FTUS44 KAMA 191700
TAFAMA
TAF
KAMA 191734Z 1918/2018 20014G22KT P6SM SCT025 BKN250
     FM200100 20008KT P6SM BKN250
     FM201400 28008KT P6SM SCT250=



000
FTUS44 KAMA 191700
TAFGUY
TAF
KGUY 191734Z 1918/2018 21017G26KT P6SM BKN250
     FM200100 24008KT P6SM BKN250
     FM201200 34008KT P6SM SCT250=



000
FTUS44 KAMA 191700
TAFDHT
TAF
KDHT 191734Z 1918/2018 20014KT P6SM BKN250
     FM200100 24008KT P6SM BKN250
     FM201400 34008KT P6SM SCT250=



000
FTUS44 KAMA 191100
TAFGUY
TAF
KGUY 191128Z 1912/2012 20011KT P6SM SCT100 SCT300
     FM191600 22016G24KT P6SM SCT050 SCT100 BKN300
     FM200000 24007KT P6SM SCT100 SCT300=



000
FTUS44 KAMA 191100
TAFAMA
TAF
KAMA 191128Z 1912/2012 19011KT P6SM BKN060
     FM191600 20016G24KT P6SM SCT040 SCT100 BKN300
     FM200000 21009KT P6SM SCT070 BKN300=



000
FTUS44 KAMA 191100
TAFDHT
TAF
KDHT 191128Z 1912/2012 21010KT P6SM SCT040
      TEMPO 1912/1916 BKN040
     FM191600 22016G24KT P6SM SCT050 SCT100 BKN300
     FM200000 24007KT P6SM SCT070 BKN300=



    US Dept of Commerce
    National Oceanic and Atmospheric Administration
    National Weather Service
    1325 East West Highway
    Silver Spring, MD 20910
    Page Author: NWS Internet Services Team
Disclaimer
Information Quality
Credits
Glossary
Privacy Policy
Freedom of Information Act (FOIA)
About Us
Career Opportunities